EST,Max TemperatureF,Mean TemperatureF,Min TemperatureF,Max Dew PointF,MeanDew PointF,Min DewpointF,Max Humidity, Mean Humidity, Min Humidity, Max Sea Level PressureIn, Mean Sea Level PressureIn, Min Sea Level PressureIn, Max VisibilityMiles, Mean VisibilityMiles, Min VisibilityMiles, Max Wind SpeedMPH, Mean Wind SpeedMPH, Max Gust SpeedMPH,PrecipitationIn, CloudCover, Events, WindDirDegrees
2012-2-1,35,32,28,27,23,21,80,64,56,30.13,30.00,29.73,10,10,4,15,8,23,0.00,8,,312
2012-2-2,37,32,28,27,24,21,86,72,60,30.36,30.22,30.14,10,9,3,8,2,,0.00,8,,280
2012-2-3,39,32,24,27,23,18,75,63,49,30.48,30.43,30.38,10,10,10,8,3,,0.00,5,,284
2012-2-4,46,32,17,25,18,9,86,63,37,30.40,30.28,30.13,10,10,5,14,5,18,0.00,0,,283
2012-2-5,37,34,30,25,22,19,75,64,56,30.29,30.22,30.11,10,10,10,15,7,18,0.00,5,,298
2012-2-6,42,33,24,27,20,16,74,62,49,30.14,30.01,29.95,10,10,8,13,6,20,0.00,2,,265
2012-2-7,30,24,17,18,9,3,64,52,40,30.47,30.40,30.22,10,10,10,15,12,23,0.00,5,,3
2012-2-8,37,22,8,1,-1,-4,67,42,19,30.39,30.22,30.09,10,10,10,15,8,18,0.00,0,,266
2012-2-9,39,28,17,10,2,-2,46,34,24,30.09,29.98,29.86,10,10,10,16,8,23,0.00,0,,242
2012-2-10,28,20,12,18,4,-2,69,56,45,30.20,30.06,29.87,10,8,1,20,12,29,0.00,7,,351
2012-2-11,21,16,12,1,0,-2,62,51,39,30.25,30.20,30.12,10,10,10,18,11,24,0.00,4,,302
2012-2-12,35,22,8,5,1,-2,67,45,20,30.14,30.10,30.02,10,10,10,21,10,26,0.00,0,,285
2012-2-13,30,19,8,16,5,-6,62,46,34,30.01,29.94,29.82,10,10,10,17,8,22,0.00,3,,224
2012-2-14,32,29,26,25,22,19,80,75,60,29.83,29.77,29.75,10,6,2,10,5,,0.00,8,,212
2012-2-15,37,34,30,27,25,21,80,72,60,30.01,29.96,29.89,10,6,2,13,6,18,0.00,6,,196
2012-2-16,41,34,28,28,22,14,86,67,36,29.98,29.93,29.87,10,5,0,17,4,26,0.00,6,,290
2012-2-17,37,30,24,23,18,14,75,58,41,30.03,30.00,29.97,10,9,3,13,7,18,0.00,7,,266
2012-2-18,28,24,21,18,12,9,74,58,47,30.21,30.12,30.01,10,10,7,15,7,23,0.00,6,,329
2012-2-19,33,20,8,19,11,0,79,65,47,30.19,30.16,30.12,10,10,8,10,2,,0.00,0,,190
2012-2-20,37,22,8,25,14,1,79,67,45,30.24,30.18,30.05,10,9,4,16,3,23,0.00,0,,182
2012-2-21,33,32,32,28,26,23,81,74,65,29.95,29.61,29.41,10,7,1,13,9,17,0.01,6,,170
2012-2-22,37,34,30,25,20,18,70,57,45,29.40,29.35,29.30,10,10,10,16,10,23,0.00,8,,265
2012-2-23,35,30,24,21,19,18,74,64,52,29.67,29.55,29.39,10,10,10,7,4,,0.00,8,,282
2012-2-24,33,30,26,21,18,12,74,62,47,29.75,29.64,29.58,10,10,2,17,8,25,0.00,7,,354
2012-2-25,30,24,17,14,10,9,68,53,40,30.26,30.04,29.76,10,10,8,15,9,22,0.00,6,,327
2012-2-26,37,27,17,28,19,9,80,65,55,30.30,30.07,29.79,10,9,2,23,9,31,0.00,7,,130
2012-2-27,37,32,28,27,17,10,70,52,38,30.38,30.02,29.79,10,10,9,18,13,31,0.00,6,,294
2012-2-28,32,24,15,25,18,9,80,73,64,30.45,30.37,30.21,10,7,1,10,3,,0.00,6,,163
2012-2-29,33,32,30,27,26,25,86,78,75,30.09,29.70,29.45,10,3,0,31,18,39,0.12,8,,90